Time;durP1;ratioP1;P1;durP2;ratioP2;P2;SDS_P1;SDS_P2;PMS_P1;PMS_P2;Temp;Humidity;BMP_temperature;BMP_pressure;BME280_temperature;BME280_humidity;BME280_pressure;Samples;Min_cycle;Max_cycle;Signal;HPM_P1;HPM_P2
2023/01/14 00:04:50;;;;;;;11.48;1.73;;;;;;;8.31;74.22;100520.22;10363426;28;20678;-63
2023/01/14 00:09:52;;;;;;;10.48;1.77;;;;;;;8.32;74.72;100527.22;10372566;28;20041;-63
2023/01/14 00:14:53;;;;;;;17.15;2.30;;;;;;;8.35;74.88;100534.09;10368829;28;20042;-63
2023/01/14 00:19:55;;;;;;;11.40;2.17;;;;;;;8.41;74.50;100530.84;10369511;28;20062;-64
2023/01/14 00:24:56;;;;;;;8.32;1.38;;;;;;;8.45;74.27;100532.22;10363086;28;20045;-63
2023/01/14 00:29:58;;;;;;;15.63;1.25;;;;;;;8.46;74.39;100530.38;10362102;28;20081;-64
2023/01/14 00:34:59;;;;;;;10.75;1.10;;;;;;;8.47;74.48;100537.41;10362704;28;20061;-62
2023/01/14 00:40:00;;;;;;;11.38;1.33;;;;;;;8.50;74.63;100551.31;10363537;28;20092;-63
2023/01/14 00:45:02;;;;;;;8.95;1.00;;;;;;;8.60;74.45;100548.53;10362582;28;20136;-64
2023/01/14 00:50:04;;;;;;;13.57;1.45;;;;;;;8.65;74.28;100534.66;10364026;28;20835;-64
2023/01/14 00:55:06;;;;;;;5.78;1.17;;;;;;;8.73;74.31;100537.41;10347484;28;20407;-64
2023/01/14 01:00:08;;;;;;;7.40;0.65;;;;;;;8.81;74.09;100532.09;10342494;28;20509;-65
2023/01/14 01:05:09;;;;;;;13.98;0.90;;;;;;;8.89;73.90;100526.75;10342715;28;20109;-65
2023/01/14 01:10:10;;;;;;;6.68;0.75;;;;;;;8.92;74.04;100530.94;10333054;28;20209;-65
2023/01/14 01:15:12;;;;;;;11.68;1.15;;;;;;;8.99;73.75;100526.63;10336484;28;20057;-64
2023/01/14 01:20:13;;;;;;;11.65;0.98;;;;;;;8.98;73.51;100532.97;10338353;28;20136;-63
2023/01/14 01:25:15;;;;;;;10.70;1.77;;;;;;;8.98;73.40;100537.50;10338030;28;20120;-64
2023/01/14 01:30:17;;;;;;;5.50;0.85;;;;;;;8.96;73.08;100534.97;10331462;28;20788;-65
2023/01/14 01:35:18;;;;;;;12.00;1.27;;;;;;;8.95;72.91;100556.63;10336899;28;20464;-65
2023/01/14 01:40:20;;;;;;;7.45;1.02;;;;;;;8.93;72.57;100546.88;10336289;28;20050;-64
2023/01/14 01:45:32;;;;;;;5.82;0.88;;;;;;;9.00;72.34;100551.59;10335813;28;20100;-65
2023/01/14 01:50:35;;;;;;;11.48;1.60;;;;;;;8.98;72.30;100567.84;10338834;28;20401;-65
2023/01/14 01:55:39;;;;;;;15.93;2.15;;;;;;;8.96;72.54;100583.25;10336268;28;20080;-65
2023/01/14 02:00:41;;;;;;;5.78;0.95;;;;;;;9.01;72.40;100583.63;10336025;28;20042;-62
2023/01/14 02:05:43;;;;;;;11.93;0.93;;;;;;;9.07;72.32;100593.69;10336038;28;20056;-62
2023/01/14 02:11:08;;;;;;;10.82;0.80;;;;;;;9.04;72.17;100585.97;10329808;28;20132;-63
2023/01/14 02:16:22;;;;;;;11.93;1.05;;;;;;;9.04;72.44;100598.53;10334893;28;20084;-61
2023/01/14 02:21:38;;;;;;;13.73;1.30;;;;;;;9.05;72.14;100597.53;10336144;28;20057;-62
2023/01/14 02:27:01;;;;;;;11.27;0.90;;;;;;;9.07;71.63;100599.06;10337220;28;20073;-62
2023/01/14 02:32:14;;;;;;;13.10;1.25;;;;;;;9.09;71.73;100597.06;10335891;28;20054;-63
2023/01/14 02:37:26;;;;;;;9.73;1.00;;;;;;;9.03;71.99;100600.38;10336596;28;20120;-62
2023/01/14 02:48:07;;;;;;;6.85;0.80;;;;;;;8.97;71.68;100584.94;10330692;28;20505;-63
2023/01/14 02:53:18;;;;;;;10.27;1.10;;;;;;;8.99;71.51;100585.63;10338074;28;20045;-62
2023/01/14 02:58:36;;;;;;;12.18;0.82;;;;;;;8.96;71.67;100580.56;10331879;28;20049;-63
2023/01/14 03:04:10;;;;;;;11.55;1.80;;;;;;;8.88;71.41;100589.41;10336233;28;20096;-62
2023/01/14 03:09:22;;;;;;;9.00;0.93;;;;;;;8.82;71.78;100590.03;10327437;28;20117;-63
2023/01/14 03:14:40;;;;;;;10.88;1.00;;;;;;;8.86;71.00;100572.63;10331961;28;20057;-63
2023/01/14 03:19:50;;;;;;;18.08;1.58;;;;;;;8.79;71.24;100574.28;10331636;28;20038;-62
2023/01/14 03:24:53;;;;;;;18.63;2.38;;;;;;;8.67;71.22;100572.88;10334250;28;20133;-62
2023/01/14 03:30:01;;;;;;;9.68;0.95;;;;;;;8.56;71.62;100571.28;10335574;28;20483;-62
2023/01/14 03:35:07;;;;;;;12.30;1.30;;;;;;;8.52;71.30;100562.72;10336549;28;20058;-63
2023/01/14 03:40:12;;;;;;;13.07;2.10;;;;;;;8.49;71.69;100549.66;10333016;28;20104;-62
2023/01/14 03:45:29;;;;;;;7.25;1.48;;;;;;;8.31;71.78;100530.94;10333937;28;20069;-63
2023/01/14 03:50:34;;;;;;;;;;;;;;;8.22;72.20;100525.66;10331321;28;20053;-62
2023/01/14 03:55:52;;;;;;;14.65;1.20;;;;;;;8.23;71.65;100538.03;10334875;28;19929;-62
2023/01/14 04:01:04;;;;;;;7.43;0.93;;;;;;;8.17;71.86;100538.66;10328518;28;20046;-62
2023/01/14 04:06:08;;;;;;;14.10;2.38;;;;;;;8.10;71.85;100535.78;10332500;28;20082;-62
2023/01/14 04:11:10;;;;;;;45.83;10.88;;;;;;;7.99;72.42;100528.00;10334507;28;20050;-63
2023/01/14 04:16:11;;;;;;;18.60;2.72;;;;;;;7.94;72.28;100517.75;10333831;28;20050;-63
2023/01/14 04:21:13;;;;;;;10.82;0.80;;;;;;;7.86;72.30;100514.97;10332163;28;20464;-63
2023/01/14 04:26:14;;;;;;;15.85;1.52;;;;;;;7.82;73.16;100517.16;10333803;28;20084;-63
2023/01/14 04:31:16;;;;;;;20.15;1.13;;;;;;;7.88;72.97;100508.50;10335511;28;20076;-63
2023/01/14 04:36:17;;;;;;;12.77;1.50;;;;;;;7.89;72.86;100503.97;10342064;28;20042;-63
2023/01/14 04:46:39;;;;;;;12.10;1.10;;;;;;;7.90;72.42;100509.19;10334923;28;20100;-63
2023/01/14 04:51:40;;;;;;;12.90;0.98;;;;;;;7.86;73.07;100510.50;10336980;28;20111;-64
2023/01/14 04:56:41;;;;;;;8.05;0.95;;;;;;;7.89;72.28;100522.72;10341443;28;20146;-64
2023/01/14 05:01:43;;;;;;;7.55;1.00;;;;;;;7.86;72.99;100525.69;10337114;28;20070;-64
2023/01/14 05:06:44;;;;;;;18.50;1.30;;;;;;;7.87;72.62;100530.06;10340233;28;20052;-63
2023/01/14 05:11:46;;;;;;;11.35;0.95;;;;;;;7.85;72.61;100516.00;10342957;28;20033;-63
2023/01/14 05:16:47;;;;;;;18.92;1.40;;;;;;;7.93;72.88;100518.72;10340752;28;20092;-63
2023/01/14 05:21:49;;;;;;;14.57;2.70;;;;;;;7.99;72.74;100501.22;10340764;28;20054;-63
2023/01/14 05:26:50;;;;;;;13.88;2.13;;;;;;;7.97;72.77;100500.53;10336982;28;20065;-63
2023/01/14 05:31:51;;;;;;;18.02;2.35;;;;;;;7.94;72.51;100496.34;10334315;28;20069;-63
2023/01/14 05:36:53;;;;;;;6.88;1.20;;;;;;;7.90;73.04;100485.09;10340205;28;20069;-63
2023/01/14 05:47:14;;;;;;;10.80;1.10;;;;;;;7.83;73.72;100453.75;10332925;28;20419;-64
2023/01/14 05:52:16;;;;;;;8.35;1.00;;;;;;;7.84;73.38;100456.28;10335481;28;20443;-64
2023/01/14 05:57:17;;;;;;;20.80;1.35;;;;;;;7.91;73.66;100453.81;10335431;28;20132;-63
2023/01/14 06:07:38;;;;;;;19.98;1.45;;;;;;;8.11;73.23;100447.25;10336488;28;20046;-63
2023/01/14 06:12:57;;;;;;;10.68;1.35;;;;;;;8.20;73.37;100441.97;10334945;28;20054;-63
2023/01/14 06:18:14;;;;;;;12.10;1.38;;;;;;;8.31;72.89;100437.19;10337038;28;20600;-62
2023/01/14 06:23:17;;;;;;;13.93;1.57;;;;;;;8.33;72.70;100435.19;10333641;28;20109;-62
2023/01/14 06:28:18;;;;;;;11.68;1.15;;;;;;;8.46;72.34;100441.97;10334617;28;20046;-63
2023/01/14 06:33:20;;;;;;;12.88;1.00;;;;;;;8.58;72.47;100437.16;10335340;28;20046;-63
2023/01/14 06:38:22;;;;;;;11.00;0.75;;;;;;;8.53;72.69;100422.41;10335762;28;20042;-63
2023/01/14 06:43:23;;;;;;;17.27;1.33;;;;;;;8.62;72.43;100414.41;10337197;28;20058;-64
2023/01/14 06:48:25;;;;;;;15.32;1.80;;;;;;;8.63;72.76;100398.19;10335319;28;20496;-63
2023/01/14 06:53:27;;;;;;;10.25;1.42;;;;;;;8.69;72.42;100408.25;10335945;28;20076;-63
2023/01/14 06:58:28;;;;;;;17.40;1.27;;;;;;;8.68;72.30;100395.84;10336391;28;20073;-63
2023/01/14 07:03:30;;;;;;;10.77;1.73;;;;;;;8.67;72.74;100382.63;10329583;28;20096;-63
2023/01/14 07:08:31;;;;;;;15.80;2.03;;;;;;;8.67;72.72;100374.59;10332410;28;20061;-62
2023/01/14 07:13:33;;;;;;;16.80;1.58;;;;;;;8.66;72.87;100371.03;10328823;28;20528;-63
2023/01/14 07:18:35;;;;;;;14.18;1.33;;;;;;;8.67;73.08;100353.16;10332469;28;20050;-65
2023/01/14 07:23:36;;;;;;;13.25;1.27;;;;;;;8.73;73.41;100358.69;10339059;28;20053;-66
2023/01/14 07:28:37;;;;;;;10.70;0.90;;;;;;;8.82;72.84;100343.44;10327469;28;20549;-65
2023/01/14 07:33:39;;;;;;;12.38;1.40;;;;;;;8.80;72.68;100337.41;10324755;28;20509;-65
2023/01/14 07:38:40;;;;;;;7.13;1.15;;;;;;;8.87;72.65;100338.44;10327927;28;20041;-65
2023/01/14 07:43:42;;;;;;;12.15;1.45;;;;;;;8.86;72.62;100326.03;10331159;28;20077;-65
2023/01/14 07:48:44;;;;;;;10.63;1.77;;;;;;;8.87;72.77;100316.16;10334770;28;20520;-65
2023/01/14 07:53:46;;;;;;;11.38;1.35;;;;;;;8.89;72.81;100328.38;10330088;28;20069;-65
2023/01/14 07:58:48;;;;;;;8.15;1.13;;;;;;;8.84;72.83;100305.75;10331336;28;20132;-66
2023/01/14 08:03:49;;;;;;;12.80;1.10;;;;;;;8.88;72.42;100307.94;10333583;28;20050;-66
2023/01/14 08:08:51;;;;;;;13.15;1.33;;;;;;;8.89;72.56;100319.50;10341628;28;20658;-67
2023/01/14 08:13:52;;;;;;;21.90;2.13;;;;;;;8.96;72.20;100307.09;10340658;28;20048;-66
2023/01/14 08:18:54;;;;;;;12.57;1.27;;;;;;;8.95;72.42;100300.06;10337698;28;20125;-66
2023/01/14 08:23:55;;;;;;;12.13;1.15;;;;;;;9.01;72.17;100298.56;10341177;28;20104;-66
2023/01/14 08:28:56;;;;;;;11.23;1.08;;;;;;;9.04;72.21;100291.00;10340899;28;20128;-66
2023/01/14 08:33:59;;;;;;;10.98;1.50;;;;;;;9.05;71.70;100286.50;10335876;28;20134;-66
2023/01/14 08:39:00;;;;;;;12.20;1.30;;;;;;;8.99;72.13;100284.50;10338582;28;20297;-67
2023/01/14 08:44:02;;;;;;;19.05;1.27;;;;;;;8.90;72.21;100275.59;10338644;28;20140;-65
2023/01/14 08:49:04;;;;;;;11.65;1.65;;;;;;;8.99;72.40;100258.53;10338123;28;20623;-65
2023/01/14 08:54:06;;;;;;;11.77;0.70;;;;;;;8.95;72.09;100253.66;10338779;28;20084;-63
2023/01/14 08:59:07;;;;;;;9.15;0.75;;;;;;;9.04;72.06;100247.28;10335028;28;20732;-64
2023/01/14 09:04:09;;;;;;;5.97;0.73;;;;;;;9.03;72.25;100235.72;10333062;28;20081;-65
2023/01/14 09:19:56;;;;;;;10.57;1.45;;;;;;;8.82;72.55;100214.78;10334227;28;20119;-64
2023/01/14 09:24:57;;;;;;;9.60;0.97;;;;;;;8.81;72.96;100213.13;10333570;28;20049;-65
2023/01/14 09:29:59;;;;;;;7.97;1.60;;;;;;;8.87;73.05;100199.06;10339320;28;20161;-64
2023/01/14 09:35:00;;;;;;;15.77;1.63;;;;;;;8.92;72.78;100177.91;10338760;28;20062;-65
2023/01/14 09:40:03;;;;;;;9.23;0.70;;;;;;;8.98;72.94;100171.03;10337962;28;20065;-65
2023/01/14 09:45:22;;;;;;;10.95;1.25;;;;;;;9.05;73.02;100168.53;10340129;28;20049;-65
2023/01/14 09:50:52;;;;;;;8.82;1.00;;;;;;;9.05;73.23;100149.75;10339675;28;20140;-65
2023/01/14 09:55:58;;;;;;;7.47;0.60;;;;;;;9.16;73.23;100135.97;10332360;28;20097;-65
2023/01/14 10:01:16;;;;;;;9.90;1.70;;;;;;;9.29;72.98;100120.19;10329546;28;20476;-65
2023/01/14 10:06:19;;;;;;;6.13;0.65;;;;;;;9.39;72.99;100116.47;10336204;28;20070;-65
2023/01/14 10:11:23;;;;;;;5.93;0.73;;;;;;;9.45;72.87;100092.44;10334280;28;20085;-65
2023/01/14 10:16:31;;;;;;;7.50;0.45;;;;;;;9.51;72.88;100088.22;10334377;28;20093;-65
2023/01/14 10:21:57;;;;;;;6.90;0.60;;;;;;;9.55;72.99;100089.56;10336527;28;20465;-64
2023/01/14 10:27:00;;;;;;;3.70;1.08;;;;;;;9.65;73.01;100070.53;10347835;28;20053;-65
2023/01/14 10:32:02;;;;;;;10.20;1.70;;;;;;;9.68;73.01;100062.16;10336002;28;20561;-65
2023/01/14 10:37:05;;;;;;;7.07;0.60;;;;;;;9.63;73.25;100051.09;10334998;28;20066;-65
2023/01/14 10:42:11;;;;;;;4.95;1.05;;;;;;;9.73;73.03;100036.47;10333838;28;20073;-66
2023/01/14 10:47:16;;;;;;;6.63;0.52;;;;;;;9.87;72.80;100017.88;10334913;28;20077;-65
2023/01/14 10:52:20;;;;;;;6.63;1.08;;;;;;;9.90;72.88;100002.25;10329107;28;20042;-66
2023/01/14 10:57:21;;;;;;;4.60;0.50;;;;;;;10.01;72.83;99987.59;10330420;28;20053;-65
2023/01/14 11:02:44;;;;;;;9.70;0.80;;;;;;;10.07;72.72;99984.16;10335052;28;20062;-64
2023/01/14 11:07:50;;;;;;;2.40;0.80;;;;;;;10.06;72.60;99978.97;10332243;28;20046;-64
2023/01/14 11:12:51;;;;;;;3.40;0.52;;;;;;;10.09;72.51;99975.91;10335362;28;20622;-64
2023/01/14 11:17:53;;;;;;;4.00;0.43;;;;;;;10.13;72.52;99964.63;10334895;28;20042;-65
2023/01/14 11:22:59;;;;;;;3.42;0.93;;;;;;;10.25;72.41;99945.41;10329911;28;20045;-65
2023/01/14 11:28:04;;;;;;;6.70;0.60;;;;;;;10.33;71.92;99926.53;10324286;28;20061;-65
2023/01/14 11:33:05;;;;;;;10.25;0.73;;;;;;;10.30;72.08;99894.66;10326659;28;20034;-66
2023/01/14 11:38:15;;;;;;;10.18;0.95;;;;;;;10.32;71.94;99874.63;10327260;28;20477;-65
2023/01/14 11:43:17;;;;;;;3.38;0.30;;;;;;;10.35;71.63;99857.31;10329414;28;20069;-65
2023/01/14 11:48:26;;;;;;;1.80;0.60;;;;;;;10.42;71.55;99831.34;10338822;28;20060;-65
2023/01/14 11:53:48;;;;;;;8.35;0.60;;;;;;;10.43;71.31;99822.28;10329853;28;20061;-64
2023/01/14 11:58:50;;;;;;;6.43;0.52;;;;;;;10.49;71.07;99807.28;10330887;28;20568;-65
2023/01/14 12:04:05;;;;;;;3.05;0.60;;;;;;;10.47;71.16;99775.22;10332568;28;20104;-65
2023/01/14 12:09:14;;;;;;;5.43;0.85;;;;;;;10.57;70.94;99756.09;10328721;28;20049;-65
2023/01/14 12:19:58;;;;;;;7.65;0.52;;;;;;;10.62;70.74;99737.50;10331543;28;20152;-66
2023/01/14 12:25:24;;;;;;;5.93;0.32;;;;;;;10.59;70.49;99745.97;10331516;28;20573;-65
2023/01/14 12:30:44;;;;;;;3.33;0.50;;;;;;;10.46;70.51;99730.53;10332443;28;20069;-64
2023/01/14 12:35:53;;;;;;;6.60;0.88;;;;;;;10.09;71.75;99724.31;10331439;28;20138;-63
2023/01/14 12:46:32;;;;;;;5.45;0.60;;;;;;;9.70;73.10;99685.22;10342096;28;20050;-65
2023/01/14 12:51:39;;;;;;;2.63;0.32;;;;;;;9.58;73.63;99684.03;10333730;28;20720;-67
2023/01/14 12:56:56;;;;;;;3.60;0.40;;;;;;;9.39;74.31;99679.22;10353548;28;20046;-66
2023/01/14 13:02:04;;;;;;;2.92;0.73;;;;;;;9.33;74.73;99665.53;10337215;28;20096;-66
2023/01/14 13:07:15;;;;;;;8.07;0.60;;;;;;;9.34;74.91;99658.34;10340978;28;20056;-65
2023/01/14 13:12:26;;;;;;;4.80;0.45;;;;;;;9.36;75.08;99636.66;10332219;28;20978;-66
2023/01/14 13:17:37;;;;;;;3.45;0.32;;;;;;;9.38;75.17;99637.31;10339805;28;20116;-66
2023/01/14 13:22:45;;;;;;;3.03;0.68;;;;;;;9.39;75.62;99625.59;10341962;28;20093;-63
2023/01/14 13:27:47;;;;;;;4.57;0.43;;;;;;;9.43;75.44;99622.31;10355645;28;20615;-64
2023/01/14 13:32:49;;;;;;;7.68;0.65;;;;;;;9.38;76.02;99600.63;10350162;28;20402;-65
2023/01/14 13:37:53;;;;;;;4.03;0.40;;;;;;;9.34;76.32;99593.97;10352184;28;20046;-65
2023/01/14 13:43:14;;;;;;;3.63;0.52;;;;;;;9.40;76.38;99566.38;10340064;28;20127;-67
2023/01/14 13:48:23;;;;;;;1.52;0.47;;;;;;;9.39;76.70;99562.03;10332761;28;20084;-67
2023/01/14 13:53:28;;;;;;;3.42;0.57;;;;;;;9.43;76.64;99560.63;10333581;28;20500;-68
2023/01/14 13:58:40;;;;;;;5.88;1.30;;;;;;;9.38;76.88;99544.28;10331987;28;20524;-67
2023/01/14 14:03:41;;;;;;;3.83;0.43;;;;;;;9.47;76.88;99536.94;10335465;28;20043;-67
2023/01/14 14:08:49;;;;;;;4.18;0.55;;;;;;;9.41;77.42;99526.97;10335148;28;20042;-66
2023/01/14 14:14:04;;;;;;;6.10;0.60;;;;;;;9.42;77.56;99516.06;10335037;28;20046;-67
2023/01/14 14:19:09;;;;;;;6.38;0.60;;;;;;;9.32;77.79;99508.31;10333925;28;20085;-68
2023/01/14 14:24:52;;;;;;;7.35;0.85;;;;;;;9.39;77.89;99503.00;10336000;28;20042;-67
2023/01/14 14:30:00;;;;;;;2.40;0.50;;;;;;;9.36;78.43;99494.50;10336900;28;20108;-67
2023/01/14 14:35:07;;;;;;;3.38;0.47;;;;;;;9.40;78.16;99472.50;10336128;28;20049;-66
2023/01/14 14:40:17;;;;;;;4.15;0.70;;;;;;;9.41;78.34;99463.41;10331870;28;20088;-67
2023/01/14 14:45:29;;;;;;;2.88;0.63;;;;;;;9.45;78.27;99461.19;10331669;28;20412;-67
2023/01/14 14:50:39;;;;;;;6.50;0.88;;;;;;;9.46;78.37;99450.28;10330715;28;20392;-68
2023/01/14 14:55:53;;;;;;;2.60;0.40;;;;;;;9.51;78.50;99452.38;10328603;28;20062;-66
2023/01/14 15:00:58;;;;;;;3.97;1.00;;;;;;;9.55;78.35;99428.69;10332306;28;20042;-67
2023/01/14 15:06:02;;;;;;;2.97;0.55;;;;;;;9.51;78.37;99425.56;10332350;28;20105;-67
2023/01/14 15:11:07;;;;;;;4.57;0.60;;;;;;;9.55;78.38;99415.28;10329928;28;20054;-66
2023/01/14 15:16:08;;;;;;;2.22;0.43;;;;;;;9.48;78.66;99410.69;10331027;28;20090;-65
2023/01/14 15:21:12;;;;;;;3.33;0.60;;;;;;;9.47;78.79;99386.72;10335285;28;20053;-66
2023/01/14 15:26:17;;;;;;;2.88;0.60;;;;;;;9.44;79.11;99382.59;10333677;28;20046;-66
2023/01/14 15:31:22;;;;;;;0.82;0.43;;;;;;;9.46;79.19;99388.59;10326853;28;20038;-67
2023/01/14 15:36:24;;;;;;;3.75;0.52;;;;;;;9.50;78.99;99378.31;10331335;28;20105;-66
2023/01/14 15:41:34;;;;;;;5.55;0.60;;;;;;;9.53;79.27;99367.16;10329694;28;20050;-66
2023/01/14 15:46:40;;;;;;;3.58;0.50;;;;;;;9.54;79.28;99360.81;10329392;28;20042;-66
2023/01/14 15:51:43;;;;;;;2.65;0.70;;;;;;;9.62;79.22;99360.66;10332259;28;20066;-67
2023/01/14 15:56:44;;;;;;;3.42;0.40;;;;;;;9.67;79.08;99350.16;10332146;28;20046;-67
2023/01/14 16:01:54;;;;;;;1.40;0.30;;;;;;;9.67;78.95;99336.72;10331311;28;20077;-67
2023/01/14 16:07:11;;;;;;;1.10;0.30;;;;;;;9.65;79.06;99330.72;10330135;28;20048;-66
2023/01/14 16:12:14;;;;;;;4.95;0.55;;;;;;;9.60;79.38;99314.41;10331337;28;20066;-65
2023/01/14 16:17:19;;;;;;;2.25;0.30;;;;;;;9.60;79.32;99298.31;10330818;28;20046;-65
2023/01/14 16:22:20;;;;;;;1.58;0.32;;;;;;;9.64;79.35;99302.25;10334765;28;20499;-66
2023/01/14 16:27:24;;;;;;;6.93;1.98;;;;;;;9.67;79.43;99304.53;10337492;28;20078;-65
2023/01/14 16:32:25;;;;;;;1.40;0.40;;;;;;;9.70;79.23;99301.47;10338635;28;20045;-67
2023/01/14 16:37:27;;;;;;;4.18;0.50;;;;;;;9.73;79.32;99309.13;10339607;28;20468;-65
2023/01/14 16:42:29;;;;;;;1.48;0.40;;;;;;;9.82;79.00;99288.34;10338583;28;20137;-66
2023/01/14 16:47:30;;;;;;;3.25;0.85;;;;;;;9.86;78.93;99284.22;10341731;28;20034;-65
2023/01/14 16:52:32;;;;;;;2.13;0.30;;;;;;;9.92;78.80;99272.69;10332420;28;20070;-66
2023/01/14 16:57:33;;;;;;;2.92;0.55;;;;;;;9.94;78.84;99256.41;10337164;28;20046;-66
2023/01/14 17:02:34;;;;;;;4.10;0.57;;;;;;;9.97;78.92;99252.47;10336467;28;20121;-67
2023/01/14 17:07:38;;;;;;;3.60;1.13;;;;;;;10.01;78.56;99246.53;10336748;28;20603;-67
2023/01/14 17:12:41;;;;;;;0.85;0.45;;;;;;;10.03;78.62;99228.38;10339154;28;20049;-67
2023/01/14 17:17:43;;;;;;;2.55;0.40;;;;;;;10.09;78.44;99232.94;10337256;28;20610;-67
2023/01/14 17:22:45;;;;;;;5.72;1.40;;;;;;;10.10;78.51;99217.63;10333758;28;20533;-67
2023/01/14 17:27:49;;;;;;;3.10;0.40;;;;;;;10.15;78.24;99217.03;10334480;28;20038;-67
2023/01/14 17:32:51;;;;;;;2.95;0.60;;;;;;;10.20;77.92;99203.81;10331362;28;20547;-67
2023/01/14 17:37:58;;;;;;;2.50;0.60;;;;;;;10.19;78.28;99212.91;10337713;28;20648;-66
2023/01/14 17:42:59;;;;;;;5.78;1.02;;;;;;;10.17;78.01;99212.28;10338457;28;20050;-67
2023/01/14 17:48:01;;;;;;;4.57;0.55;;;;;;;10.15;78.26;99204.44;10331968;28;20101;-66
2023/01/14 17:53:02;;;;;;;6.85;1.30;;;;;;;10.19;78.07;99203.00;10333186;28;20124;-66
2023/01/14 17:58:03;;;;;;;3.53;0.50;;;;;;;10.24;77.95;99205.06;10336057;28;20078;-67
2023/01/14 18:03:05;;;;;;;4.75;0.50;;;;;;;10.34;78.04;99191.28;10337903;28;20049;-66
2023/01/14 18:08:06;;;;;;;4.18;0.88;;;;;;;10.37;77.81;99180.97;10336202;28;20132;-67
2023/01/14 18:13:07;;;;;;;2.38;0.50;;;;;;;10.41;78.08;99179.53;10336712;28;20074;-67
2023/01/14 18:18:09;;;;;;;4.72;0.50;;;;;;;10.44;78.10;99171.06;10330805;28;20053;-67
2023/01/14 18:23:10;;;;;;;2.85;0.60;;;;;;;10.50;77.78;99178.31;10332582;28;20042;-67
2023/01/14 18:28:11;;;;;;;3.80;0.50;;;;;;;10.56;77.84;99183.88;10336430;28;20870;-62
2023/01/14 18:33:13;;;;;;;2.03;0.40;;;;;;;10.50;78.16;99175.63;10336127;28;20069;-62
2023/01/14 18:38:14;;;;;;;3.33;0.90;;;;;;;10.33;78.58;99166.31;10333232;28;20132;-61
2023/01/14 18:43:16;;;;;;;2.38;0.60;;;;;;;10.23;78.94;99171.19;10334709;28;20042;-61
2023/01/14 18:48:17;;;;;;;3.88;0.60;;;;;;;10.16;79.34;99152.38;10333115;28;20390;-60
2023/01/14 18:53:19;;;;;;;1.48;0.30;;;;;;;10.09;79.44;99143.47;10335732;28;20077;-60
2023/01/14 18:58:21;;;;;;;1.25;0.52;;;;;;;10.10;79.59;99137.09;10330491;28;20076;-59
2023/01/14 19:03:22;;;;;;;3.40;0.60;;;;;;;10.09;79.68;99141.63;10331625;28;20128;-60
2023/01/14 19:08:23;;;;;;;2.97;0.70;;;;;;;10.17;79.66;99146.00;10335484;28;20081;-62
2023/01/14 19:13:25;;;;;;;3.90;0.95;;;;;;;10.25;79.65;99143.13;10330969;28;20442;-62
2023/01/14 19:18:28;;;;;;;5.80;0.82;;;;;;;10.27;79.81;99103.44;10330585;28;20128;-64
2023/01/14 19:23:30;;;;;;;3.95;0.50;;;;;;;10.34;79.66;99098.09;10332016;28;20508;-60
2023/01/14 19:28:31;;;;;;;2.10;0.60;;;;;;;10.36;79.71;99096.03;10330570;28;20493;-61
2023/01/14 19:33:33;;;;;;;1.95;0.50;;;;;;;10.39;79.96;99090.25;10330087;28;20037;-60
2023/01/14 19:38:34;;;;;;;3.00;0.60;;;;;;;10.44;79.82;99086.94;10330456;28;20472;-61
2023/01/14 19:43:36;;;;;;;4.45;0.63;;;;;;;10.52;79.90;99079.53;10330454;28;20354;-62
2023/01/14 19:48:40;;;;;;;2.72;0.55;;;;;;;10.58;79.62;99082.41;10328281;28;20576;-63
2023/01/14 19:53:42;;;;;;;4.63;0.85;;;;;;;10.62;79.57;99080.94;10334441;28;20116;-60
2023/01/14 19:58:46;;;;;;;3.85;0.50;;;;;;;10.63;79.47;99080.75;10332502;28;20092;-60
2023/01/14 20:03:47;;;;;;;1.15;0.40;;;;;;;10.70;79.71;99060.09;10339805;28;20081;-58
2023/01/14 20:08:49;;;;;;;1.60;0.35;;;;;;;10.74;79.44;99057.78;10334666;28;20152;-62
2023/01/14 20:13:55;;;;;;;1.92;0.40;;;;;;;10.80;79.57;99069.56;10340976;28;20037;-60
2023/01/14 20:18:56;;;;;;;2.10;0.85;;;;;;;10.86;79.44;99053.44;10341233;28;20058;-60
2023/01/14 20:23:58;;;;;;;0.80;0.40;;;;;;;10.91;79.37;99042.84;10340836;28;20097;-60
2023/01/14 20:29:00;;;;;;;3.15;0.60;;;;;;;10.95;79.13;99035.19;10339582;28;20062;-60
2023/01/14 20:34:04;;;;;;;2.70;0.50;;;;;;;11.01;79.25;99039.75;10334316;28;20057;-59
2023/01/14 20:39:05;;;;;;;3.72;0.75;;;;;;;11.07;79.21;99032.69;10335699;28;20054;-63
2023/01/14 20:44:54;;;;;;;0.90;0.63;;;;;;;11.10;79.17;99021.53;10336958;28;20373;-61
2023/01/14 20:49:28;;;;;;;2.58;0.47;;;;;;;11.17;78.73;99019.63;10335211;28;20539;-60
2023/01/14 20:54:30;;;;;;;3.63;0.85;;;;;;;11.20;78.78;99008.44;10334379;28;20050;-62
2023/01/14 20:59:32;;;;;;;2.60;0.55;;;;;;;11.23;78.90;98985.66;10337380;28;20141;-61
2023/01/14 21:04:34;;;;;;;2.08;0.47;;;;;;;11.24;78.84;98974.69;10338351;28;20049;-60
2023/01/14 21:09:57;;;;;;;6.05;1.20;;;;;;;11.27;79.10;98968.06;10336419;28;20612;-62
2023/01/14 21:25:41;;;;;;;3.70;0.70;;;;;;;11.32;78.78;98970.94;10333496;28;20124;-61
2023/01/14 21:30:45;;;;;;;1.08;0.60;;;;;;;11.32;79.02;98950.22;10340855;28;20466;-60
2023/01/14 21:35:46;;;;;;;2.20;0.60;;;;;;;11.35;78.78;98957.03;10334351;28;20072;-61
2023/01/14 21:43:24;;;;;;;2.08;0.60;;;;;;;11.41;78.80;98958.88;10338590;28;20069;-61
2023/01/14 21:46:09;;;;;;;1.02;0.60;;;;;;;11.48;78.62;98964.22;10337847;28;20138;-62
2023/01/14 21:51:12;;;;;;;0.90;0.40;;;;;;;11.50;78.49;98952.19;10337348;28;20120;-60
2023/01/14 21:56:17;;;;;;;0.52;0.35;;;;;;;11.57;78.63;98954.88;10337592;28;20178;-61
2023/01/14 22:01:19;;;;;;;0.93;0.30;;;;;;;11.61;78.53;98937.25;10335917;28;20139;-60
2023/01/14 22:06:21;;;;;;;0.45;0.30;;;;;;;11.61;78.72;98931.84;10336649;28;20061;-60
2023/01/14 22:11:22;;;;;;;1.35;0.98;;;;;;;11.58;78.68;98920.69;10342676;28;20135;-61
2023/01/14 22:16:26;;;;;;;1.00;0.28;;;;;;;11.53;78.70;98929.41;10342203;28;20089;-61
2023/01/14 22:21:27;;;;;;;0.55;0.50;;;;;;;11.49;78.71;98912.88;10330699;28;20501;-61
2023/01/14 22:26:29;;;;;;;1.08;0.30;;;;;;;11.53;78.61;98910.56;10335275;28;20120;-61
2023/01/14 22:31:30;;;;;;;1.58;0.40;;;;;;;11.49;78.09;98912.03;10330265;28;20086;-62
2023/01/14 22:36:32;;;;;;;1.13;0.20;;;;;;;11.45;78.89;98926.97;10334111;28;20420;-61
2023/01/14 22:41:33;;;;;;;3.40;0.20;;;;;;;11.48;78.50;98913.91;10336063;28;20058;-60
2023/01/14 22:46:34;;;;;;;1.80;0.20;;;;;;;11.31;79.34;98905.56;10330164;28;20117;-61
2023/01/14 22:51:36;;;;;;;0.80;0.30;;;;;;;11.20;79.31;98887.41;10333032;28;20058;-60
2023/01/14 22:56:38;;;;;;;0.68;0.30;;;;;;;11.08;80.10;98884.59;10332390;28;20111;-62
2023/01/14 23:01:39;;;;;;;0.77;0.50;;;;;;;11.04;80.46;98869.09;10330560;28;20429;-65
2023/01/14 23:06:41;;;;;;;0.65;0.40;;;;;;;10.96;80.62;98862.13;10333596;28;20073;-66
2023/01/14 23:11:42;;;;;;;2.88;0.40;;;;;;;10.89;80.48;98848.69;10337640;28;20561;-66
2023/01/14 23:27:24;;;;;;;1.60;0.55;;;;;;;10.84;81.00;98821.66;10336657;28;20042;-67
2023/01/14 23:32:25;;;;;;;2.03;1.00;;;;;;;10.90;80.96;98806.53;10335187;28;20042;-66
2023/01/14 23:37:28;;;;;;;5.82;0.68;;;;;;;10.86;81.22;98800.75;10331635;28;20140;-67
2023/01/14 23:42:29;;;;;;;1.55;0.90;;;;;;;10.84;81.48;98796.59;10330878;28;20053;-64
2023/01/14 23:47:43;;;;;;;2.47;1.00;;;;;;;10.83;81.70;98774.28;10334289;28;20053;-68
2023/01/14 23:52:45;;;;;;;2.75;1.00;;;;;;;10.81;81.99;98768.31;10337104;28;20041;-67
2023/01/14 23:57:46;;;;;;;2.55;0.82;;;;;;;10.84;81.79;98754.44;10332181;28;20531;-67
